sensor_id;sensor_type;location;lat;lon;timestamp;pressure;altitude;pressure_sealevel;temperature;humidity
26859;BME280;14429;48.346;16.338;2022-12-07T00:00:26;99604.00;;;12.27;57.20
26859;BME280;14429;48.346;16.338;2022-12-07T00:02:51;99592.44;;;12.15;56.99
26859;BME280;14429;48.346;16.338;2022-12-07T00:05:17;99598.25;;;12.10;57.86
26859;BME280;14429;48.346;16.338;2022-12-07T00:07:42;99596.66;;;11.96;57.45
26859;BME280;14429;48.346;16.338;2022-12-07T00:10:08;99595.84;;;12.17;57.60
26859;BME280;14429;48.346;16.338;2022-12-07T00:12:33;99598.25;;;12.10;57.82
26859;BME280;14429;48.346;16.338;2022-12-07T00:14:58;99595.78;;;11.96;57.62
26859;BME280;14429;48.346;16.338;2022-12-07T00:17:25;99593.25;;;12.05;57.43
26859;BME280;14429;48.346;16.338;2022-12-07T00:19:51;99608.31;;;11.95;58.05
26859;BME280;14429;48.346;16.338;2022-12-07T00:22:16;99601.38;;;11.93;58.24
26859;BME280;14429;48.346;16.338;2022-12-07T00:24:41;99610.44;;;11.90;58.53
26859;BME280;14429;48.346;16.338;2022-12-07T00:27:07;99605.00;;;11.46;57.70
26859;BME280;14429;48.346;16.338;2022-12-07T00:29:32;99610.94;;;11.85;58.48
26859;BME280;14429;48.346;16.338;2022-12-07T00:31:58;99608.41;;;11.94;58.43
26859;BME280;14429;48.346;16.338;2022-12-07T00:34:24;99601.44;;;11.81;58.31
26859;BME280;14429;48.346;16.338;2022-12-07T00:36:50;99611.56;;;11.88;58.41
26859;BME280;14429;48.346;16.338;2022-12-07T00:39:15;99595.94;;;12.05;57.85
26859;BME280;14429;48.346;16.338;2022-12-07T00:41:41;99614.16;;;12.00;57.61
26859;BME280;14429;48.346;16.338;2022-12-07T00:44:06;99617.28;;;11.71;57.63
26859;BME280;14429;48.346;16.338;2022-12-07T00:46:32;99610.13;;;11.72;56.34
26859;BME280;14429;48.346;16.338;2022-12-07T00:48:57;99608.19;;;11.97;58.19
26859;BME280;14429;48.346;16.338;2022-12-07T00:51:25;99613.13;;;11.90;58.08
26859;BME280;14429;48.346;16.338;2022-12-07T00:53:51;99613.81;;;12.15;57.42
26859;BME280;14429;48.346;16.338;2022-12-07T00:56:18;99608.47;;;12.15;57.21
26859;BME280;14429;48.346;16.338;2022-12-07T00:58:44;99612.59;;;12.09;57.67
26859;BME280;14429;48.346;16.338;2022-12-07T01:01:14;99603.31;;;12.02;57.86
26859;BME280;14429;48.346;16.338;2022-12-07T01:03:39;99609.38;;;11.93;57.89
26859;BME280;14429;48.346;16.338;2022-12-07T01:06:05;99610.69;;;11.64;57.31
26859;BME280;14429;48.346;16.338;2022-12-07T01:08:32;99612.38;;;11.55;57.33
26859;BME280;14429;48.346;16.338;2022-12-07T01:10:58;99617.84;;;11.87;57.97
26859;BME280;14429;48.346;16.338;2022-12-07T01:13:24;99614.50;;;11.96;57.96
26859;BME280;14429;48.346;16.338;2022-12-07T01:15:49;99622.75;;;11.93;57.58
26859;BME280;14429;48.346;16.338;2022-12-07T01:18:15;99615.69;;;11.92;58.05
26859;BME280;14429;48.346;16.338;2022-12-07T01:20:40;99604.31;;;12.01;57.83
26859;BME280;14429;48.346;16.338;2022-12-07T01:23:06;99594.63;;;12.11;57.12
26859;BME280;14429;48.346;16.338;2022-12-07T01:25:33;99601.66;;;12.12;57.40
26859;BME280;14429;48.346;16.338;2022-12-07T01:27:58;99608.81;;;12.00;57.77
26859;BME280;14429;48.346;16.338;2022-12-07T01:30:23;99602.66;;;11.87;57.35
26859;BME280;14429;48.346;16.338;2022-12-07T01:32:49;99600.28;;;11.95;57.68
26859;BME280;14429;48.346;16.338;2022-12-07T01:35:15;99606.38;;;11.74;54.86
26859;BME280;14429;48.346;16.338;2022-12-07T01:37:40;99606.63;;;12.05;57.28
26859;BME280;14429;48.346;16.338;2022-12-07T01:40:07;99608.31;;;11.72;54.32
26859;BME280;14429;48.346;16.338;2022-12-07T01:42:34;99601.38;;;11.93;56.81
26859;BME280;14429;48.346;16.338;2022-12-07T01:48:05;99608.00;;;11.87;56.84
26859;BME280;14429;48.346;16.338;2022-12-07T01:50:30;99601.75;;;11.99;57.59
26859;BME280;14429;48.346;16.338;2022-12-07T01:52:56;99595.47;;;12.11;57.04
26859;BME280;14429;48.346;16.338;2022-12-07T01:55:25;99598.34;;;11.97;57.59
26859;BME280;14429;48.346;16.338;2022-12-07T01:57:53;99589.34;;;11.98;57.61
26859;BME280;14429;48.346;16.338;2022-12-07T02:00:20;99591.75;;;11.90;57.75
26859;BME280;14429;48.346;16.338;2022-12-07T02:02:47;99587.75;;;11.85;57.93
26859;BME280;14429;48.346;16.338;2022-12-07T02:05:13;99584.09;;;11.86;57.36
26859;BME280;14429;48.346;16.338;2022-12-07T02:07:39;99588.69;;;11.84;57.54
26859;BME280;14429;48.346;16.338;2022-12-07T02:10:13;99585.34;;;11.93;57.56
26859;BME280;14429;48.346;16.338;2022-12-07T02:12:38;99581.91;;;11.91;57.74
26859;BME280;14429;48.346;16.338;2022-12-07T02:15:06;99585.44;;;11.91;57.89
26859;BME280;14429;48.346;16.338;2022-12-07T02:17:38;99580.44;;;11.87;58.07
26859;BME280;14429;48.346;16.338;2022-12-07T02:20:13;99579.16;;;11.92;58.00
26859;BME280;14429;48.346;16.338;2022-12-07T02:23:00;99584.63;;;12.02;57.18
26859;BME280;14429;48.346;16.338;2022-12-07T02:25:41;99591.13;;;11.87;56.80
26859;BME280;14429;48.346;16.338;2022-12-07T02:28:19;99586.50;;;11.78;57.91
26859;BME280;14429;48.346;16.338;2022-12-07T02:30:49;99574.38;;;11.85;57.75
26859;BME280;14429;48.346;16.338;2022-12-07T02:33:21;99595.00;;;11.83;57.89
26859;BME280;14429;48.346;16.338;2022-12-07T02:35:54;99574.25;;;11.86;57.62
26859;BME280;14429;48.346;16.338;2022-12-07T02:38:28;99581.50;;;11.74;57.69
26859;BME280;14429;48.346;16.338;2022-12-07T02:41:00;99587.00;;;11.83;58.08
26859;BME280;14429;48.346;16.338;2022-12-07T02:43:28;99583.56;;;11.70;58.23
26859;BME280;14429;48.346;16.338;2022-12-07T02:46:01;99581.28;;;11.77;58.07
26859;BME280;14429;48.346;16.338;2022-12-07T02:48:28;99587.81;;;11.50;58.03
26859;BME280;14429;48.346;16.338;2022-12-07T02:50:54;99590.59;;;11.71;57.75
26859;BME280;14429;48.346;16.338;2022-12-07T02:53:32;99583.94;;;11.77;57.98
26859;BME280;14429;48.346;16.338;2022-12-07T02:56:03;99575.19;;;11.75;58.39
26859;BME280;14429;48.346;16.338;2022-12-07T02:58:37;99588.84;;;11.24;56.21
26859;BME280;14429;48.346;16.338;2022-12-07T03:01:17;99586.63;;;11.54;58.13
26859;BME280;14429;48.346;16.338;2022-12-07T03:03:48;99579.19;;;11.80;58.18
26859;BME280;14429;48.346;16.338;2022-12-07T03:06:22;99582.84;;;11.79;57.52
26859;BME280;14429;48.346;16.338;2022-12-07T03:08:57;99568.50;;;11.69;57.91
26859;BME280;14429;48.346;16.338;2022-12-07T03:11:38;99577.66;;;11.55;58.34
26859;BME280;14429;48.346;16.338;2022-12-07T03:14:13;99571.81;;;11.37;56.31
26859;BME280;14429;48.346;16.338;2022-12-07T03:16:45;99573.50;;;11.74;58.20
26859;BME280;14429;48.346;16.338;2022-12-07T03:19:17;99577.06;;;11.85;57.60
26859;BME280;14429;48.346;16.338;2022-12-07T03:21:46;99577.50;;;11.79;56.11
26859;BME280;14429;48.346;16.338;2022-12-07T03:24:17;99572.59;;;11.62;58.02
26859;BME280;14429;48.346;16.338;2022-12-07T03:26:46;99577.00;;;11.74;58.01
26859;BME280;14429;48.346;16.338;2022-12-07T03:29:17;99574.13;;;11.77;58.01
26859;BME280;14429;48.346;16.338;2022-12-07T03:31:47;99569.22;;;11.71;58.06
26859;BME280;14429;48.346;16.338;2022-12-07T03:34:21;99569.94;;;11.62;57.63
26859;BME280;14429;48.346;16.338;2022-12-07T03:36:51;99562.47;;;11.78;57.72
26859;BME280;14429;48.346;16.338;2022-12-07T03:39:23;99573.84;;;11.80;57.84
26859;BME280;14429;48.346;16.338;2022-12-07T03:41:51;99562.22;;;11.81;57.70
26859;BME280;14429;48.346;16.338;2022-12-07T03:44:17;99563.16;;;11.80;57.82
26859;BME280;14429;48.346;16.338;2022-12-07T03:46:48;99575.81;;;11.78;57.79
26859;BME280;14429;48.346;16.338;2022-12-07T03:49:22;99571.94;;;11.82;57.45
26859;BME280;14429;48.346;16.338;2022-12-07T03:51:54;99579.28;;;11.09;55.58
26859;BME280;14429;48.346;16.338;2022-12-07T03:54:24;99573.78;;;11.58;58.33
26859;BME280;14429;48.346;16.338;2022-12-07T03:56:52;99581.75;;;11.48;58.32
26859;BME280;14429;48.346;16.338;2022-12-07T03:59:19;99578.88;;;11.61;58.23
26859;BME280;14429;48.346;16.338;2022-12-07T04:01:52;99580.50;;;11.41;58.11
26859;BME280;14429;48.346;16.338;2022-12-07T04:04:18;99575.47;;;11.59;57.91
26859;BME280;14429;48.346;16.338;2022-12-07T04:06:43;99579.91;;;11.71;57.86
26859;BME280;14429;48.346;16.338;2022-12-07T04:09:09;99574.00;;;11.56;57.87
26859;BME280;14429;48.346;16.338;2022-12-07T04:11:34;99574.47;;;11.50;58.38
26859;BME280;14429;48.346;16.338;2022-12-07T04:14:00;99571.84;;;11.60;58.27
26859;BME280;14429;48.346;16.338;2022-12-07T04:16:25;99569.44;;;11.68;58.06
26859;BME280;14429;48.346;16.338;2022-12-07T04:18:52;99567.31;;;11.73;57.54
26859;BME280;14429;48.346;16.338;2022-12-07T04:21:17;99572.50;;;11.75;57.86
26859;BME280;14429;48.346;16.338;2022-12-07T04:23:43;99569.66;;;11.65;57.79
26859;BME280;14429;48.346;16.338;2022-12-07T04:26:08;99575.44;;;11.49;56.56
26859;BME280;14429;48.346;16.338;2022-12-07T04:28:33;99571.63;;;11.63;58.38
26859;BME280;14429;48.346;16.338;2022-12-07T04:30:59;99574.16;;;11.65;57.71
26859;BME280;14429;48.346;16.338;2022-12-07T04:33:24;99578.44;;;11.67;58.00
26859;BME280;14429;48.346;16.338;2022-12-07T04:35:51;99577.03;;;11.51;57.31
26859;BME280;14429;48.346;16.338;2022-12-07T04:38:17;99576.75;;;11.66;58.05
26859;BME280;14429;48.346;16.338;2022-12-07T04:40:42;99569.44;;;11.68;58.20
26859;BME280;14429;48.346;16.338;2022-12-07T04:43:07;99571.91;;;11.48;57.83
26859;BME280;14429;48.346;16.338;2022-12-07T04:45:33;99572.13;;;11.68;57.77
26859;BME280;14429;48.346;16.338;2022-12-07T04:47:58;99578.44;;;11.67;57.90
26859;BME280;14429;48.346;16.338;2022-12-07T04:50:24;99569.44;;;11.68;57.92
26859;BME280;14429;48.346;16.338;2022-12-07T04:52:50;99569.94;;;11.62;58.17
26859;BME280;14429;48.346;16.338;2022-12-07T04:55:16;99566.28;;;11.63;58.06
26859;BME280;14429;48.346;16.338;2022-12-07T04:57:41;99571.56;;;11.53;57.63
26859;BME280;14429;48.346;16.338;2022-12-07T05:00:08;99570.19;;;11.70;57.58
26859;BME280;14429;48.346;16.338;2022-12-07T05:02:33;99575.25;;;11.62;58.05
26859;BME280;14429;48.346;16.338;2022-12-07T05:04:59;99570.66;;;11.64;58.00
26859;BME280;14429;48.346;16.338;2022-12-07T05:07:24;99569.66;;;11.65;58.03
26859;BME280;14429;48.346;16.338;2022-12-07T05:09:51;99560.44;;;11.58;58.13
26859;BME280;14429;48.346;16.338;2022-12-07T05:12:16;99562.63;;;11.64;58.04
26859;BME280;14429;48.346;16.338;2022-12-07T05:14:42;99574.13;;;11.77;57.29
26859;BME280;14429;48.346;16.338;2022-12-07T05:17:07;99583.06;;;11.76;57.56
26859;BME280;14429;48.346;16.338;2022-12-07T05:19:32;99570.91;;;11.72;57.68
26859;BME280;14429;48.346;16.338;2022-12-07T05:21:58;99580.13;;;11.68;57.77
26859;BME280;14429;48.346;16.338;2022-12-07T05:24:23;99580.59;;;11.62;57.97
26859;BME280;14429;48.346;16.338;2022-12-07T05:26:50;99580.13;;;11.68;57.72
26859;BME280;14429;48.346;16.338;2022-12-07T05:29:16;99574.00;;;11.56;57.53
26859;BME280;14429;48.346;16.338;2022-12-07T05:31:42;99581.44;;;11.63;57.72
26859;BME280;14429;48.346;16.338;2022-12-07T05:34:09;99577.53;;;11.56;57.98
26859;BME280;14429;48.346;16.338;2022-12-07T05:36:34;99579.13;;;11.58;58.19
26859;BME280;14429;48.346;16.338;2022-12-07T05:39:00;99573.66;;;11.60;58.05
26859;BME280;14429;48.346;16.338;2022-12-07T05:41:26;99574.84;;;11.56;57.77
26859;BME280;14429;48.346;16.338;2022-12-07T05:43:52;99572.66;;;11.73;57.29
26859;BME280;14429;48.346;16.338;2022-12-07T05:46:18;99573.31;;;11.64;57.66
26859;BME280;14429;48.346;16.338;2022-12-07T05:48:43;99567.97;;;11.64;57.79
26859;BME280;14429;48.346;16.338;2022-12-07T05:51:08;99567.41;;;11.49;57.23
26859;BME280;14429;48.346;16.338;2022-12-07T05:53:34;99576.41;;;11.48;58.21
26859;BME280;14429;48.346;16.338;2022-12-07T05:55:59;99575.25;;;11.62;58.00
26859;BME280;14429;48.346;16.338;2022-12-07T05:58:25;99581.22;;;11.66;57.56
26859;BME280;14429;48.346;16.338;2022-12-07T06:00:54;99570.56;;;11.66;57.63
26859;BME280;14429;48.346;16.338;2022-12-07T06:03:19;99578.66;;;11.64;57.94
26859;BME280;14429;48.346;16.338;2022-12-07T06:05:44;99575.88;;;11.66;57.74
26859;BME280;14429;48.346;16.338;2022-12-07T06:08:10;99582.31;;;11.63;57.85
26859;BME280;14429;48.346;16.338;2022-12-07T06:10:35;99579.84;;;11.60;57.77
26859;BME280;14429;48.346;16.338;2022-12-07T06:13:01;99580.34;;;11.65;57.63
26859;BME280;14429;48.346;16.338;2022-12-07T06:15:26;99581.84;;;11.69;57.45
26859;BME280;14429;48.346;16.338;2022-12-07T06:17:53;99580.13;;;11.68;57.61
26859;BME280;14429;48.346;16.338;2022-12-07T06:20:18;99577.19;;;11.60;57.73
26859;BME280;14429;48.346;16.338;2022-12-07T06:22:44;99578.16;;;11.59;57.84
26859;BME280;14429;48.346;16.338;2022-12-07T06:25:09;99583.63;;;11.58;57.83
26859;BME280;14429;48.346;16.338;2022-12-07T06:27:34;99581.31;;;11.64;57.68
26859;BME280;14429;48.346;16.338;2022-12-07T06:30:00;99584.63;;;11.68;57.40
26859;BME280;14429;48.346;16.338;2022-12-07T06:32:25;99596.38;;;11.65;57.62
26859;BME280;14429;48.346;16.338;2022-12-07T06:34:52;99585.19;;;11.60;57.71
26859;BME280;14429;48.346;16.338;2022-12-07T06:37:17;99585.41;;;11.57;58.05
26859;BME280;14429;48.346;16.338;2022-12-07T06:39:43;99589.56;;;11.61;57.71
26859;BME280;14429;48.346;16.338;2022-12-07T06:42:08;99591.03;;;11.65;57.64
26859;BME280;14429;48.346;16.338;2022-12-07T06:44:34;99593.81;;;11.64;57.29
26859;BME280;14429;48.346;16.338;2022-12-07T06:46:59;99592.97;;;11.63;57.37
26859;BME280;14429;48.346;16.338;2022-12-07T06:49:24;99587.63;;;11.63;57.64
26859;BME280;14429;48.346;16.338;2022-12-07T06:51:51;99592.97;;;11.63;57.56
26859;BME280;14429;48.346;16.338;2022-12-07T06:54:17;99590.44;;;11.62;57.74
26859;BME280;14429;48.346;16.338;2022-12-07T06:56:43;99593.19;;;11.60;57.95
26859;BME280;14429;48.346;16.338;2022-12-07T06:59:08;99594.44;;;11.67;57.14
26859;BME280;14429;48.346;16.338;2022-12-07T07:01:35;99591.50;;;11.59;57.85
26859;BME280;14429;48.346;16.338;2022-12-07T07:04:00;99597.56;;;11.61;57.71
26859;BME280;14429;48.346;16.338;2022-12-07T07:06:26;99584.47;;;11.58;57.71
26859;BME280;14429;48.346;16.338;2022-12-07T07:08:53;99580.41;;;11.53;57.90
26859;BME280;14429;48.346;16.338;2022-12-07T07:11:19;99587.47;;;11.54;57.79
26859;BME280;14429;48.346;16.338;2022-12-07T07:13:44;99590.75;;;11.57;57.43
26859;BME280;14429;48.346;16.338;2022-12-07T07:16:10;99593.19;;;11.60;57.48
26859;BME280;14429;48.346;16.338;2022-12-07T07:18:36;99596.84;;;11.59;57.59
26859;BME280;14429;48.346;16.338;2022-12-07T07:21:02;99588.84;;;11.59;57.71
26859;BME280;14429;48.346;16.338;2022-12-07T07:23:27;99595.19;;;11.46;58.01
26859;BME280;14429;48.346;16.338;2022-12-07T07:25:54;99596.56;;;11.52;57.91
26859;BME280;14429;48.346;16.338;2022-12-07T07:28:19;99597.91;;;11.57;57.49
26859;BME280;14429;48.346;16.338;2022-12-07T07:30:45;99589.81;;;11.58;57.43
26859;BME280;14429;48.346;16.338;2022-12-07T07:33:11;99600.72;;;11.56;57.75
26859;BME280;14429;48.346;16.338;2022-12-07T07:35:37;99597.06;;;11.57;57.57
26859;BME280;14429;48.346;16.338;2022-12-07T07:38:02;99604.44;;;11.53;57.83
26859;BME280;14429;48.346;16.338;2022-12-07T07:40:28;99607.47;;;11.49;57.90
26859;BME280;14429;48.346;16.338;2022-12-07T07:42:55;99609.56;;;11.56;57.61
26859;BME280;14429;48.346;16.338;2022-12-07T07:45:22;99611.06;;;11.12;54.90
26859;BME280;14429;48.346;16.338;2022-12-07T07:47:49;99609.50;;;11.45;57.91
26859;BME280;14429;48.346;16.338;2022-12-07T07:50:15;99600.22;;;11.51;57.60
26859;BME280;14429;48.346;16.338;2022-12-07T07:52:40;99602.88;;;11.51;57.63
26859;BME280;14429;48.346;16.338;2022-12-07T07:55:06;99596.50;;;11.41;57.73
26859;BME280;14429;48.346;16.338;2022-12-07T07:57:31;99596.66;;;11.50;57.74
26859;BME280;14429;48.346;16.338;2022-12-07T07:59:58;99583.22;;;11.52;57.32
26859;BME280;14429;48.346;16.338;2022-12-07T08:02:24;99594.00;;;11.50;57.61
26859;BME280;14429;48.346;16.338;2022-12-07T08:04:49;99597.56;;;11.38;55.38
26859;BME280;14429;48.346;16.338;2022-12-07T08:07:15;99603.72;;;11.51;57.75
26859;BME280;14429;48.346;16.338;2022-12-07T08:09:40;99608.22;;;11.51;57.71
26859;BME280;14429;48.346;16.338;2022-12-07T08:12:06;99603.09;;;11.48;57.81
26859;BME280;14429;48.346;16.338;2022-12-07T08:14:32;99613.56;;;11.51;57.46
26859;BME280;14429;48.346;16.338;2022-12-07T08:16:59;99616.94;;;11.53;57.52
26859;BME280;14429;48.346;16.338;2022-12-07T08:19:25;99615.47;;;11.49;57.78
26859;BME280;14429;48.346;16.338;2022-12-07T08:21:50;99612.06;;;11.47;57.79
26859;BME280;14429;48.346;16.338;2022-12-07T08:24:16;99618.16;;;11.49;57.72
26859;BME280;14429;48.346;16.338;2022-12-07T08:26:42;99623.19;;;11.41;57.99
26859;BME280;14429;48.346;16.338;2022-12-07T08:29:07;99623.72;;;11.46;57.71
26859;BME280;14429;48.346;16.338;2022-12-07T08:31:33;99615.25;;;11.52;57.45
26859;BME280;14429;48.346;16.338;2022-12-07T08:34:00;99621.38;;;11.41;57.97
26859;BME280;14429;48.346;16.338;2022-12-07T08:36:26;99617.00;;;11.28;57.61
26859;BME280;14429;48.346;16.338;2022-12-07T08:38:51;99625.25;;;11.25;57.71
26859;BME280;14429;48.346;16.338;2022-12-07T08:41:17;99627.47;;;11.31;57.10
26859;BME280;14429;48.346;16.338;2022-12-07T08:43:42;99627.25;;;11.34;57.21
26859;BME280;14429;48.346;16.338;2022-12-07T08:46:10;99633.44;;;11.34;57.09
26859;BME280;14429;48.346;16.338;2022-12-07T08:48:40;99627.91;;;11.25;57.39
26859;BME280;14429;48.346;16.338;2022-12-07T08:51:07;99641.34;;;11.24;57.74
26859;BME280;14429;48.346;16.338;2022-12-07T08:53:34;99633.25;;;11.25;57.77
26859;BME280;14429;48.346;16.338;2022-12-07T08:56:00;99627.03;;;11.37;57.06
26859;BME280;14429;48.346;16.338;2022-12-07T08:58:26;99633.22;;;11.37;57.10
26859;BME280;14429;48.346;16.338;2022-12-07T09:00:52;99635.47;;;11.31;57.38
26859;BME280;14429;48.346;16.338;2022-12-07T09:03:17;99627.91;;;11.25;56.88
26859;BME280;14429;48.346;16.338;2022-12-07T09:05:42;99634.53;;;11.32;57.49
26859;BME280;14429;48.346;16.338;2022-12-07T09:08:09;99631.09;;;11.30;57.43
26859;BME280;14429;48.346;16.338;2022-12-07T09:10:35;99632.19;;;11.40;56.99
26859;BME280;14429;48.346;16.338;2022-12-07T09:13:00;99629.38;;;11.41;56.92
26859;BME280;14429;48.346;16.338;2022-12-07T09:15:26;99620.00;;;11.36;57.17
26859;BME280;14429;48.346;16.338;2022-12-07T09:17:51;99631.53;;;11.24;57.43
26859;BME280;14429;48.346;16.338;2022-12-07T09:20:17;99629.41;;;11.29;57.55
26859;BME280;14429;48.346;16.338;2022-12-07T09:22:42;99619.66;;;11.28;57.45
26859;BME280;14429;48.346;16.338;2022-12-07T09:25:09;99619.34;;;11.32;57.36
26859;BME280;14429;48.346;16.338;2022-12-07T09:27:34;99627.69;;;11.40;56.81
26859;BME280;14429;48.346;16.338;2022-12-07T09:30:00;99617.63;;;11.31;57.25
26859;BME280;14429;48.346;16.338;2022-12-07T09:32:25;99609.53;;;11.33;57.25
26859;BME280;14429;48.346;16.338;2022-12-07T09:34:51;99608.06;;;11.29;57.31
26859;BME280;14429;48.346;16.338;2022-12-07T09:37:16;99613.69;;;10.89;56.20
26859;BME280;14429;48.346;16.338;2022-12-07T09:39:41;99606.19;;;11.06;57.40
26859;BME280;14429;48.346;16.338;2022-12-07T09:42:08;99606.28;;;11.17;57.14
26859;BME280;14429;48.346;16.338;2022-12-07T09:44:39;99602.91;;;11.38;56.80
26859;BME280;14429;48.346;16.338;2022-12-07T09:47:05;99609.25;;;11.25;56.43
26859;BME280;14429;48.346;16.338;2022-12-07T09:49:31;99603.25;;;10.99;53.32
26859;BME280;14429;48.346;16.338;2022-12-07T09:52:02;99598.06;;;11.08;56.90
26859;BME280;14429;48.346;16.338;2022-12-07T09:54:29;99592.03;;;11.29;57.44
26859;BME280;14429;48.346;16.338;2022-12-07T09:56:54;99597.16;;;11.32;57.27
26859;BME280;14429;48.346;16.338;2022-12-07T09:59:21;99590.19;;;11.42;56.60
26859;BME280;14429;48.346;16.338;2022-12-07T10:01:48;99598.19;;;11.42;56.78
26859;BME280;14429;48.346;16.338;2022-12-07T10:04:16;99603.84;;;11.37;57.07
26859;BME280;14429;48.346;16.338;2022-12-07T10:06:43;99596.91;;;11.35;57.10
26859;BME280;14429;48.346;16.338;2022-12-07T10:09:10;99596.19;;;11.33;57.02
26859;BME280;14429;48.346;16.338;2022-12-07T10:11:57;99592.00;;;11.41;56.80
26859;BME280;14429;48.346;16.338;2022-12-07T10:14:27;99591.25;;;11.39;56.42
26859;BME280;14429;48.346;16.338;2022-12-07T10:16:52;99586.03;;;11.38;56.28
26859;BME280;14429;48.346;16.338;2022-12-07T10:19:21;99588.91;;;11.35;54.56
26859;BME280;14429;48.346;16.338;2022-12-07T10:22:01;99586.03;;;11.38;56.73
26859;BME280;14429;48.346;16.338;2022-12-07T10:24:27;99586.47;;;11.32;56.73
26859;BME280;14429;48.346;16.338;2022-12-07T10:26:54;99578.22;;;11.35;56.74
26859;BME280;14429;48.346;16.338;2022-12-07T10:29:21;99580.00;;;11.47;56.41
26859;BME280;14429;48.346;16.338;2022-12-07T10:31:54;99568.75;;;11.43;56.31
26859;BME280;14429;48.346;16.338;2022-12-07T10:34:22;99561.06;;;11.39;56.35
26859;BME280;14429;48.346;16.338;2022-12-07T10:36:48;99568.41;;;11.35;56.48
26859;BME280;14429;48.346;16.338;2022-12-07T10:39:14;99566.81;;;11.33;56.65
26859;BME280;14429;48.346;16.338;2022-12-07T10:41:53;99564.50;;;11.29;56.86
26859;BME280;14429;48.346;16.338;2022-12-07T10:44:21;99584.53;;;11.34;56.84
26859;BME280;14429;48.346;16.338;2022-12-07T10:47:20;99560.09;;;11.40;56.23
26859;BME280;14429;48.346;16.338;2022-12-07T10:52:52;99568.84;;;11.42;56.37
26859;BME280;14429;48.346;16.338;2022-12-07T10:55:22;99562.03;;;11.38;56.32
26859;BME280;14429;48.346;16.338;2022-12-07T10:58:00;99556.72;;;11.26;56.78
26859;BME280;14429;48.346;16.338;2022-12-07T11:00:37;99552.09;;;11.40;56.38
26859;BME280;14429;48.346;16.338;2022-12-07T11:03:30;99556.69;;;11.38;56.14
26859;BME280;14429;48.346;16.338;2022-12-07T11:06:10;99560.28;;;11.37;56.04
26859;BME280;14429;48.346;16.338;2022-12-07T11:08:48;99564.38;;;11.30;56.29
26859;BME280;14429;48.346;16.338;2022-12-07T11:11:25;99554.19;;;11.35;56.38
26859;BME280;14429;48.346;16.338;2022-12-07T11:13:55;99551.53;;;11.35;56.33
26859;BME280;14429;48.346;16.338;2022-12-07T11:16:32;99548.69;;;11.38;55.91
26859;BME280;14429;48.346;16.338;2022-12-07T11:19:11;99556.47;;;11.41;55.64
26859;BME280;14429;48.346;16.338;2022-12-07T11:21:45;99553.78;;;11.41;55.91
26859;BME280;14429;48.346;16.338;2022-12-07T11:24:16;99552.84;;;11.30;56.28
26859;BME280;14429;48.346;16.338;2022-12-07T11:26:56;99560.38;;;11.12;55.48
26859;BME280;14429;48.346;16.338;2022-12-07T11:29:58;99554.47;;;11.20;56.27
26859;BME280;14429;48.346;16.338;2022-12-07T11:32:43;99561.50;;;11.21;54.53
26859;BME280;14429;48.346;16.338;2022-12-07T11:35:20;99561.59;;;11.31;55.22
26859;BME280;14429;48.346;16.338;2022-12-07T11:37:49;99559.16;;;11.29;55.43
26859;BME280;14429;48.346;16.338;2022-12-07T11:40:20;99561.50;;;11.21;54.35
26859;BME280;14429;48.346;16.338;2022-12-07T11:42:52;99553.63;;;11.19;50.62
26859;BME280;14429;48.346;16.338;2022-12-07T11:45:22;99548.72;;;11.26;55.94
26859;BME280;14429;48.346;16.338;2022-12-07T11:47:54;99549.34;;;11.29;56.07
26859;BME280;14429;48.346;16.338;2022-12-07T11:50:36;99548.47;;;11.41;55.31
26859;BME280;14429;48.346;16.338;2022-12-07T11:53:03;99538.00;;;11.38;55.69
26859;BME280;14429;48.346;16.338;2022-12-07T11:55:40;99543.53;;;11.35;55.81
26859;BME280;14429;48.346;16.338;2022-12-07T11:58:34;99544.94;;;11.05;49.82
26859;BME280;14429;48.346;16.338;2022-12-07T12:01:11;99544.31;;;11.02;53.02
26859;BME280;14429;48.346;16.338;2022-12-07T12:03:42;99540.50;;;11.16;55.34
26859;BME280;14429;48.346;16.338;2022-12-07T12:06:10;99534.19;;;11.30;55.34
26859;BME280;14429;48.346;16.338;2022-12-07T12:08:39;99533.09;;;11.32;54.03
26859;BME280;14429;48.346;16.338;2022-12-07T12:11:17;99531.16;;;11.11;54.83
26859;BME280;14429;48.346;16.338;2022-12-07T12:14:23;99526.50;;;11.25;55.96
26859;BME280;14429;48.346;16.338;2022-12-07T12:17:08;99526.22;;;11.17;56.02
26859;BME280;14429;48.346;16.338;2022-12-07T12:19:40;99521.19;;;11.25;55.83
26859;BME280;14429;48.346;16.338;2022-12-07T12:22:15;99524.13;;;11.33;55.65
26859;BME280;14429;48.346;16.338;2022-12-07T12:24:43;99529.25;;;11.36;55.26
26859;BME280;14429;48.346;16.338;2022-12-07T12:27:17;99521.81;;;11.29;54.96
26859;BME280;14429;48.346;16.338;2022-12-07T12:29:52;99521.53;;;11.31;55.34
26859;BME280;14429;48.346;16.338;2022-12-07T12:32:20;99511.13;;;11.29;54.41
26859;BME280;14429;48.346;16.338;2022-12-07T12:35:21;99518.88;;;11.08;48.09
26859;BME280;14429;48.346;16.338;2022-12-07T12:37:50;99517.75;;;11.23;55.74
26859;BME280;14429;48.346;16.338;2022-12-07T12:40:42;99516.84;;;11.35;54.98
26859;BME280;14429;48.346;16.338;2022-12-07T12:43:49;99514.38;;;11.21;54.45
26859;BME280;14429;48.346;16.338;2022-12-07T12:46:45;99511.72;;;11.09;52.68
26859;BME280;14429;48.346;16.338;2022-12-07T12:49:35;99509.56;;;10.91;52.87
26859;BME280;14429;48.346;16.338;2022-12-07T12:52:45;99512.97;;;10.93;53.84
26859;BME280;14429;48.346;16.338;2022-12-07T12:55:11;99504.63;;;10.97;53.20
26859;BME280;14429;48.346;16.338;2022-12-07T12:57:37;99512.19;;;11.03;54.34
26859;BME280;14429;48.346;16.338;2022-12-07T13:00:15;99508.69;;;11.03;53.78
26859;BME280;14429;48.346;16.338;2022-12-07T13:02:48;99509.25;;;11.18;52.42
26859;BME280;14429;48.346;16.338;2022-12-07T13:05:19;99511.78;;;11.20;52.74